sensor_id;sensor_type;location;lat;lon;timestamp;temperature;humidity
11239;DHT22;5677;48.488;13.436;2023-06-24T00:00:08;21.70;54.90
11239;DHT22;5677;48.488;13.436;2023-06-24T00:02:37;21.70;54.90
11239;DHT22;5677;48.488;13.436;2023-06-24T00:05:07;21.80;54.90
11239;DHT22;5677;48.488;13.436;2023-06-24T00:07:34;21.70;54.90
11239;DHT22;5677;48.488;13.436;2023-06-24T00:10:10;21.70;54.90
11239;DHT22;5677;48.488;13.436;2023-06-24T00:12:38;21.70;54.90
11239;DHT22;5677;48.488;13.436;2023-06-24T00:15:07;21.70;55.00
11239;DHT22;5677;48.488;13.436;2023-06-24T00:17:34;21.70;54.90
11239;DHT22;5677;48.488;13.436;2023-06-24T00:20:01;21.70;55.00
11239;DHT22;5677;48.488;13.436;2023-06-24T00:22:31;21.70;54.90
11239;DHT22;5677;48.488;13.436;2023-06-24T00:24:58;21.70;55.00
11239;DHT22;5677;48.488;13.436;2023-06-24T00:27:25;21.70;55.00
11239;DHT22;5677;48.488;13.436;2023-06-24T00:29:54;21.70;55.00
11239;DHT22;5677;48.488;13.436;2023-06-24T00:32:21;21.70;55.00
11239;DHT22;5677;48.488;13.436;2023-06-24T00:34:47;21.70;55.00
11239;DHT22;5677;48.488;13.436;2023-06-24T00:37:16;21.70;55.00
11239;DHT22;5677;48.488;13.436;2023-06-24T00:39:42;21.70;55.00
11239;DHT22;5677;48.488;13.436;2023-06-24T00:42:09;21.70;55.00
11239;DHT22;5677;48.488;13.436;2023-06-24T00:44:36;21.60;54.90
11239;DHT22;5677;48.488;13.436;2023-06-24T00:47:06;21.60;54.90
11239;DHT22;5677;48.488;13.436;2023-06-24T00:49:35;21.60;54.90
11239;DHT22;5677;48.488;13.436;2023-06-24T00:52:02;21.60;54.90
11239;DHT22;5677;48.488;13.436;2023-06-24T00:54:29;21.70;55.00
11239;DHT22;5677;48.488;13.436;2023-06-24T00:56:58;21.60;54.90
11239;DHT22;5677;48.488;13.436;2023-06-24T00:59:27;21.60;55.00
11239;DHT22;5677;48.488;13.436;2023-06-24T01:01:55;21.60;55.00
11239;DHT22;5677;48.488;13.436;2023-06-24T01:04:23;21.60;54.90
11239;DHT22;5677;48.488;13.436;2023-06-24T01:06:51;21.70;55.10
11239;DHT22;5677;48.488;13.436;2023-06-24T01:09:18;21.60;55.00
11239;DHT22;5677;48.488;13.436;2023-06-24T01:11:45;21.60;55.00
11239;DHT22;5677;48.488;13.436;2023-06-24T01:14:12;21.60;55.00
11239;DHT22;5677;48.488;13.436;2023-06-24T01:16:44;21.60;55.00
11239;DHT22;5677;48.488;13.436;2023-06-24T01:19:37;21.60;55.00
11239;DHT22;5677;48.488;13.436;2023-06-24T01:22:18;21.60;55.00
11239;DHT22;5677;48.488;13.436;2023-06-24T01:24:59;21.60;55.00
11239;DHT22;5677;48.488;13.436;2023-06-24T01:27:51;21.60;55.00
11239;DHT22;5677;48.488;13.436;2023-06-24T01:30:42;21.60;55.00
11239;DHT22;5677;48.488;13.436;2023-06-24T01:33:22;21.60;55.10
11239;DHT22;5677;48.488;13.436;2023-06-24T01:35:52;21.60;55.00
11239;DHT22;5677;48.488;13.436;2023-06-24T01:38:24;21.60;55.00
11239;DHT22;5677;48.488;13.436;2023-06-24T01:40:53;21.50;55.00
11239;DHT22;5677;48.488;13.436;2023-06-24T01:43:23;21.60;55.10
11239;DHT22;5677;48.488;13.436;2023-06-24T01:45:52;21.60;55.10
11239;DHT22;5677;48.488;13.436;2023-06-24T01:48:25;21.60;55.10
11239;DHT22;5677;48.488;13.436;2023-06-24T01:50:58;21.50;55.10
11239;DHT22;5677;48.488;13.436;2023-06-24T01:53:27;21.50;55.10
11239;DHT22;5677;48.488;13.436;2023-06-24T01:55:54;21.60;55.10
11239;DHT22;5677;48.488;13.436;2023-06-24T01:58:24;21.60;55.10
11239;DHT22;5677;48.488;13.436;2023-06-24T02:00:52;21.50;55.10
11239;DHT22;5677;48.488;13.436;2023-06-24T02:03:19;21.50;55.10
11239;DHT22;5677;48.488;13.436;2023-06-24T02:05:50;21.50;55.10
11239;DHT22;5677;48.488;13.436;2023-06-24T02:08:19;21.50;55.10
11239;DHT22;5677;48.488;13.436;2023-06-24T02:10:47;21.50;55.10
11239;DHT22;5677;48.488;13.436;2023-06-24T02:13:16;21.50;55.10
11239;DHT22;5677;48.488;13.436;2023-06-24T02:15:46;21.50;55.80
11239;DHT22;5677;48.488;13.436;2023-06-24T02:18:14;21.50;55.20
11239;DHT22;5677;48.488;13.436;2023-06-24T02:20:43;21.50;55.10
11239;DHT22;5677;48.488;13.436;2023-06-24T02:23:12;21.50;55.10
11239;DHT22;5677;48.488;13.436;2023-06-24T02:25:42;21.50;55.10
11239;DHT22;5677;48.488;13.436;2023-06-24T02:28:09;21.50;55.10
11239;DHT22;5677;48.488;13.436;2023-06-24T02:30:38;21.50;55.20
11239;DHT22;5677;48.488;13.436;2023-06-24T02:33:05;21.50;55.20
11239;DHT22;5677;48.488;13.436;2023-06-24T02:35:32;21.50;55.20
11239;DHT22;5677;48.488;13.436;2023-06-24T02:37:59;21.50;55.20
11239;DHT22;5677;48.488;13.436;2023-06-24T02:40:27;21.50;55.20
11239;DHT22;5677;48.488;13.436;2023-06-24T02:42:54;21.50;55.20
11239;DHT22;5677;48.488;13.436;2023-06-24T02:45:21;21.50;55.20
11239;DHT22;5677;48.488;13.436;2023-06-24T02:47:49;21.50;55.20
11239;DHT22;5677;48.488;13.436;2023-06-24T02:50:16;21.50;55.20
11239;DHT22;5677;48.488;13.436;2023-06-24T02:52:43;21.50;55.20
11239;DHT22;5677;48.488;13.436;2023-06-24T02:55:11;21.50;55.20
11239;DHT22;5677;48.488;13.436;2023-06-24T02:57:40;21.50;55.20
11239;DHT22;5677;48.488;13.436;2023-06-24T03:00:08;21.50;55.20
11239;DHT22;5677;48.488;13.436;2023-06-24T03:02:38;21.40;55.20
11239;DHT22;5677;48.488;13.436;2023-06-24T03:05:06;21.50;55.20
11239;DHT22;5677;48.488;13.436;2023-06-24T03:07:33;21.50;55.20
11239;DHT22;5677;48.488;13.436;2023-06-24T03:10:02;21.40;55.20
11239;DHT22;5677;48.488;13.436;2023-06-24T03:12:30;21.40;55.20
11239;DHT22;5677;48.488;13.436;2023-06-24T03:14:58;21.50;55.30
11239;DHT22;5677;48.488;13.436;2023-06-24T03:17:25;21.50;55.20
11239;DHT22;5677;48.488;13.436;2023-06-24T03:19:52;21.40;55.20
11239;DHT22;5677;48.488;13.436;2023-06-24T03:22:19;21.40;55.20
11239;DHT22;5677;48.488;13.436;2023-06-24T03:24:46;21.40;55.20
11239;DHT22;5677;48.488;13.436;2023-06-24T03:27:12;21.40;55.20
11239;DHT22;5677;48.488;13.436;2023-06-24T03:29:39;21.40;55.20
11239;DHT22;5677;48.488;13.436;2023-06-24T03:32:07;21.40;55.20
11239;DHT22;5677;48.488;13.436;2023-06-24T03:34:34;21.40;55.20
11239;DHT22;5677;48.488;13.436;2023-06-24T03:37:01;21.40;55.20
11239;DHT22;5677;48.488;13.436;2023-06-24T03:39:29;21.40;55.20
11239;DHT22;5677;48.488;13.436;2023-06-24T03:41:56;21.40;55.20
11239;DHT22;5677;48.488;13.436;2023-06-24T03:44:23;21.40;55.20
11239;DHT22;5677;48.488;13.436;2023-06-24T03:46:50;21.40;55.20
11239;DHT22;5677;48.488;13.436;2023-06-24T03:49:18;21.40;55.20
11239;DHT22;5677;48.488;13.436;2023-06-24T03:51:45;21.40;55.20
11239;DHT22;5677;48.488;13.436;2023-06-24T03:54:11;21.40;55.20
11239;DHT22;5677;48.488;13.436;2023-06-24T03:56:38;21.40;55.20
11239;DHT22;5677;48.488;13.436;2023-06-24T03:59:05;21.40;55.20
11239;DHT22;5677;48.488;13.436;2023-06-24T04:01:31;21.40;55.90
11239;DHT22;5677;48.488;13.436;2023-06-24T04:03:58;21.40;55.20
11239;DHT22;5677;48.488;13.436;2023-06-24T04:06:26;21.40;55.20
11239;DHT22;5677;48.488;13.436;2023-06-24T04:08:53;21.40;55.30
11239;DHT22;5677;48.488;13.436;2023-06-24T04:11:20;21.40;55.20
11239;DHT22;5677;48.488;13.436;2023-06-24T04:13:46;21.40;55.20
11239;DHT22;5677;48.488;13.436;2023-06-24T04:16:14;21.40;55.20
11239;DHT22;5677;48.488;13.436;2023-06-24T04:18:41;21.40;55.30
11239;DHT22;5677;48.488;13.436;2023-06-24T04:21:08;21.40;55.20
11239;DHT22;5677;48.488;13.436;2023-06-24T04:23:36;21.40;55.20
11239;DHT22;5677;48.488;13.436;2023-06-24T04:26:03;21.40;55.30
11239;DHT22;5677;48.488;13.436;2023-06-24T04:28:29;21.30;55.30
11239;DHT22;5677;48.488;13.436;2023-06-24T04:30:56;21.30;55.30
11239;DHT22;5677;48.488;13.436;2023-06-24T04:33:23;21.30;55.30
11239;DHT22;5677;48.488;13.436;2023-06-24T04:35:50;21.30;55.30
11239;DHT22;5677;48.488;13.436;2023-06-24T04:38:17;21.40;55.30
11239;DHT22;5677;48.488;13.436;2023-06-24T04:40:46;21.40;55.30
11239;DHT22;5677;48.488;13.436;2023-06-24T04:43:12;21.30;55.30
11239;DHT22;5677;48.488;13.436;2023-06-24T04:45:39;21.30;55.30
11239;DHT22;5677;48.488;13.436;2023-06-24T04:48:06;21.40;55.30
11239;DHT22;5677;48.488;13.436;2023-06-24T04:50:32;21.40;56.00
11239;DHT22;5677;48.488;13.436;2023-06-24T04:52:59;21.40;55.30
11239;DHT22;5677;48.488;13.436;2023-06-24T04:55:27;21.30;55.30
11239;DHT22;5677;48.488;13.436;2023-06-24T04:57:57;21.30;55.30
11239;DHT22;5677;48.488;13.436;2023-06-24T05:00:24;21.30;55.30
11239;DHT22;5677;48.488;13.436;2023-06-24T05:02:50;21.30;55.30
11239;DHT22;5677;48.488;13.436;2023-06-24T05:05:17;21.30;55.30
11239;DHT22;5677;48.488;13.436;2023-06-24T05:07:45;21.30;55.30
11239;DHT22;5677;48.488;13.436;2023-06-24T05:10:12;21.30;55.30
11239;DHT22;5677;48.488;13.436;2023-06-24T05:12:39;21.30;55.30
11239;DHT22;5677;48.488;13.436;2023-06-24T05:15:08;21.30;55.30
11239;DHT22;5677;48.488;13.436;2023-06-24T05:17:35;21.30;55.30
11239;DHT22;5677;48.488;13.436;2023-06-24T05:20:02;21.30;55.30
11239;DHT22;5677;48.488;13.436;2023-06-24T05:22:29;21.30;55.30
11239;DHT22;5677;48.488;13.436;2023-06-24T05:24:56;21.30;55.30
11239;DHT22;5677;48.488;13.436;2023-06-24T05:27:22;21.30;55.40
11239;DHT22;5677;48.488;13.436;2023-06-24T05:29:49;21.30;55.30
11239;DHT22;5677;48.488;13.436;2023-06-24T05:32:17;21.30;55.40
11239;DHT22;5677;48.488;13.436;2023-06-24T05:34:45;21.30;55.30
11239;DHT22;5677;48.488;13.436;2023-06-24T05:37:12;21.30;55.30
11239;DHT22;5677;48.488;13.436;2023-06-24T05:39:39;21.30;55.40
11239;DHT22;5677;48.488;13.436;2023-06-24T05:42:06;21.30;55.40
11239;DHT22;5677;48.488;13.436;2023-06-24T05:44:32;21.30;56.00
11239;DHT22;5677;48.488;13.436;2023-06-24T05:46:59;21.30;55.40
11239;DHT22;5677;48.488;13.436;2023-06-24T05:49:27;21.30;55.30
11239;DHT22;5677;48.488;13.436;2023-06-24T05:51:56;21.30;55.30
11239;DHT22;5677;48.488;13.436;2023-06-24T05:54:22;21.30;55.40
11239;DHT22;5677;48.488;13.436;2023-06-24T05:56:49;21.30;55.30
11239;DHT22;5677;48.488;13.436;2023-06-24T05:59:16;21.30;55.40
11239;DHT22;5677;48.488;13.436;2023-06-24T06:01:43;21.30;55.30
11239;DHT22;5677;48.488;13.436;2023-06-24T06:04:09;21.30;55.30
11239;DHT22;5677;48.488;13.436;2023-06-24T06:06:37;21.30;55.40
11239;DHT22;5677;48.488;13.436;2023-06-24T06:09:05;21.30;55.30
11239;DHT22;5677;48.488;13.436;2023-06-24T06:11:31;21.30;55.40
11239;DHT22;5677;48.488;13.436;2023-06-24T06:13:58;21.30;55.30
11239;DHT22;5677;48.488;13.436;2023-06-24T06:16:25;21.30;55.30
11239;DHT22;5677;48.488;13.436;2023-06-24T06:18:52;21.30;55.30
11239;DHT22;5677;48.488;13.436;2023-06-24T06:21:18;21.30;55.40
11239;DHT22;5677;48.488;13.436;2023-06-24T06:23:46;21.30;55.40
11239;DHT22;5677;48.488;13.436;2023-06-24T06:26:13;21.30;55.30
11239;DHT22;5677;48.488;13.436;2023-06-24T06:28:40;21.30;55.30
11239;DHT22;5677;48.488;13.436;2023-06-24T06:31:07;21.30;55.30
11239;DHT22;5677;48.488;13.436;2023-06-24T06:33:33;21.30;55.30
11239;DHT22;5677;48.488;13.436;2023-06-24T06:36:00;21.30;55.30
11239;DHT22;5677;48.488;13.436;2023-06-24T06:38:27;21.30;55.30
11239;DHT22;5677;48.488;13.436;2023-06-24T06:40:55;21.30;55.30
11239;DHT22;5677;48.488;13.436;2023-06-24T06:43:21;21.30;55.30
11239;DHT22;5677;48.488;13.436;2023-06-24T06:45:48;21.30;55.30
11239;DHT22;5677;48.488;13.436;2023-06-24T06:48:15;21.30;55.30
11239;DHT22;5677;48.488;13.436;2023-06-24T06:50:41;21.30;55.30
11239;DHT22;5677;48.488;13.436;2023-06-24T06:53:08;21.30;55.30
11239;DHT22;5677;48.488;13.436;2023-06-24T06:55:36;21.30;55.30
11239;DHT22;5677;48.488;13.436;2023-06-24T06:58:06;21.30;55.30
11239;DHT22;5677;48.488;13.436;2023-06-24T07:00:32;21.30;55.30
11239;DHT22;5677;48.488;13.436;2023-06-24T07:02:59;21.30;55.30
11239;DHT22;5677;48.488;13.436;2023-06-24T07:05:26;21.30;55.30
11239;DHT22;5677;48.488;13.436;2023-06-24T07:07:52;21.30;55.30
11239;DHT22;5677;48.488;13.436;2023-06-24T07:10:19;21.20;55.20
11239;DHT22;5677;48.488;13.436;2023-06-24T07:12:46;21.30;55.30
11239;DHT22;5677;48.488;13.436;2023-06-24T07:15:14;21.20;55.20
11239;DHT22;5677;48.488;13.436;2023-06-24T07:17:41;21.30;55.30
11239;DHT22;5677;48.488;13.436;2023-06-24T07:20:09;21.20;55.20
11239;DHT22;5677;48.488;13.436;2023-06-24T07:22:36;21.30;55.40
11239;DHT22;5677;48.488;13.436;2023-06-24T07:25:03;21.20;55.20
11239;DHT22;5677;48.488;13.436;2023-06-24T07:27:30;21.30;55.30
11239;DHT22;5677;48.488;13.436;2023-06-24T07:29:56;21.30;55.30
11239;DHT22;5677;48.488;13.436;2023-06-24T07:32:24;21.20;55.20
11239;DHT22;5677;48.488;13.436;2023-06-24T07:34:51;21.30;55.30
11239;DHT22;5677;48.488;13.436;2023-06-24T07:37:18;21.20;55.20
11239;DHT22;5677;48.488;13.436;2023-06-24T07:39:44;21.30;55.30
11239;DHT22;5677;48.488;13.436;2023-06-24T07:42:11;21.30;55.30
11239;DHT22;5677;48.488;13.436;2023-06-24T07:44:44;21.30;55.30
11239;DHT22;5677;48.488;13.436;2023-06-24T07:47:10;21.20;55.20
11239;DHT22;5677;48.488;13.436;2023-06-24T07:49:38;21.20;55.30
11239;DHT22;5677;48.488;13.436;2023-06-24T07:52:06;21.30;55.30
11239;DHT22;5677;48.488;13.436;2023-06-24T07:54:33;21.20;55.20
11239;DHT22;5677;48.488;13.436;2023-06-24T07:57:00;21.20;55.20
11239;DHT22;5677;48.488;13.436;2023-06-24T07:59:27;21.30;55.30
11239;DHT22;5677;48.488;13.436;2023-06-24T08:01:54;21.30;55.30
11239;DHT22;5677;48.488;13.436;2023-06-24T08:04:20;21.30;55.30
11239;DHT22;5677;48.488;13.436;2023-06-24T08:06:48;21.30;55.30
11239;DHT22;5677;48.488;13.436;2023-06-24T08:09:15;21.30;55.30
11239;DHT22;5677;48.488;13.436;2023-06-24T08:11:42;21.30;55.30
11239;DHT22;5677;48.488;13.436;2023-06-24T08:14:09;21.30;55.20
11239;DHT22;5677;48.488;13.436;2023-06-24T08:16:36;21.30;55.30
11239;DHT22;5677;48.488;13.436;2023-06-24T08:19:03;21.30;55.20
11239;DHT22;5677;48.488;13.436;2023-06-24T08:21:30;21.30;55.20
11239;DHT22;5677;48.488;13.436;2023-06-24T08:23:58;21.30;55.20
11239;DHT22;5677;48.488;13.436;2023-06-24T08:26:25;21.30;55.20
11239;DHT22;5677;48.488;13.436;2023-06-24T08:28:52;21.30;55.20
11239;DHT22;5677;48.488;13.436;2023-06-24T08:31:19;21.30;55.10
11239;DHT22;5677;48.488;13.436;2023-06-24T08:33:52;21.30;55.10
11239;DHT22;5677;48.488;13.436;2023-06-24T08:36:18;21.30;55.10
11239;DHT22;5677;48.488;13.436;2023-06-24T08:38:46;21.30;55.10
11239;DHT22;5677;48.488;13.436;2023-06-24T08:41:14;21.30;55.00
11239;DHT22;5677;48.488;13.436;2023-06-24T08:43:41;21.40;55.00
11239;DHT22;5677;48.488;13.436;2023-06-24T08:46:08;21.40;55.00
11239;DHT22;5677;48.488;13.436;2023-06-24T08:48:35;21.40;55.00
11239;DHT22;5677;48.488;13.436;2023-06-24T08:51:07;21.40;55.00
11239;DHT22;5677;48.488;13.436;2023-06-24T08:53:36;21.40;55.00
11239;DHT22;5677;48.488;13.436;2023-06-24T08:56:04;21.40;54.90
11239;DHT22;5677;48.488;13.436;2023-06-24T08:58:33;21.40;54.80
11239;DHT22;5677;48.488;13.436;2023-06-24T09:01:00;21.40;54.90
11239;DHT22;5677;48.488;13.436;2023-06-24T09:03:28;21.40;54.80
11239;DHT22;5677;48.488;13.436;2023-06-24T09:05:54;21.40;54.80
11239;DHT22;5677;48.488;13.436;2023-06-24T09:08:21;21.40;54.80
11239;DHT22;5677;48.488;13.436;2023-06-24T09:10:53;21.40;54.80
11239;DHT22;5677;48.488;13.436;2023-06-24T09:13:20;21.40;54.80
11239;DHT22;5677;48.488;13.436;2023-06-24T09:15:49;21.40;54.80
11239;DHT22;5677;48.488;13.436;2023-06-24T09:18:16;21.40;54.80
11239;DHT22;5677;48.488;13.436;2023-06-24T09:20:43;21.40;54.70
11239;DHT22;5677;48.488;13.436;2023-06-24T09:23:11;21.50;54.80
11239;DHT22;5677;48.488;13.436;2023-06-24T09:25:37;21.50;54.80
11239;DHT22;5677;48.488;13.436;2023-06-24T09:28:04;21.50;54.80
11239;DHT22;5677;48.488;13.436;2023-06-24T09:30:31;21.50;54.70
11239;DHT22;5677;48.488;13.436;2023-06-24T09:32:59;21.50;54.70
11239;DHT22;5677;48.488;13.436;2023-06-24T09:35:26;21.50;54.70
11239;DHT22;5677;48.488;13.436;2023-06-24T09:37:54;21.50;54.70
11239;DHT22;5677;48.488;13.436;2023-06-24T09:40:22;21.50;54.60
11239;DHT22;5677;48.488;13.436;2023-06-24T09:42:50;21.50;54.60
11239;DHT22;5677;48.488;13.436;2023-06-24T09:45:21;21.60;54.60
11239;DHT22;5677;48.488;13.436;2023-06-24T09:47:48;21.60;54.60
11239;DHT22;5677;48.488;13.436;2023-06-24T09:50:16;21.50;54.50
11239;DHT22;5677;48.488;13.436;2023-06-24T09:52:44;21.60;54.50
11239;DHT22;5677;48.488;13.436;2023-06-24T09:55:12;21.50;54.50
11239;DHT22;5677;48.488;13.436;2023-06-24T09:57:41;21.60;54.50
11239;DHT22;5677;48.488;13.436;2023-06-24T10:00:09;21.60;54.60
11239;DHT22;5677;48.488;13.436;2023-06-24T10:02:37;21.60;54.50
11239;DHT22;5677;48.488;13.436;2023-06-24T10:05:04;21.60;54.50
11239;DHT22;5677;48.488;13.436;2023-06-24T10:07:33;21.60;54.60
11239;DHT22;5677;48.488;13.436;2023-06-24T10:10:01;21.60;54.50
11239;DHT22;5677;48.488;13.436;2023-06-24T10:12:29;21.60;54.50
11239;DHT22;5677;48.488;13.436;2023-06-24T10:14:57;21.60;54.50
11239;DHT22;5677;48.488;13.436;2023-06-24T10:17:24;21.60;54.50
11239;DHT22;5677;48.488;13.436;2023-06-24T10:19:52;21.60;54.50
11239;DHT22;5677;48.488;13.436;2023-06-24T10:22:21;21.60;54.40
11239;DHT22;5677;48.488;13.436;2023-06-24T10:24:51;21.60;54.40
11239;DHT22;5677;48.488;13.436;2023-06-24T10:27:19;21.60;54.40
11239;DHT22;5677;48.488;13.436;2023-06-24T10:29:49;21.60;54.40
11239;DHT22;5677;48.488;13.436;2023-06-24T10:32:17;21.60;54.40
11239;DHT22;5677;48.488;13.436;2023-06-24T10:34:45;21.60;54.40
11239;DHT22;5677;48.488;13.436;2023-06-24T10:37:14;21.60;54.40
11239;DHT22;5677;48.488;13.436;2023-06-24T10:39:50;21.70;54.40
11239;DHT22;5677;48.488;13.436;2023-06-24T10:42:48;21.70;54.40
11239;DHT22;5677;48.488;13.436;2023-06-24T10:45:19;21.70;54.40
11239;DHT22;5677;48.488;13.436;2023-06-24T10:47:48;21.70;54.40
11239;DHT22;5677;48.488;13.436;2023-06-24T10:50:16;21.70;54.40
11239;DHT22;5677;48.488;13.436;2023-06-24T10:52:44;21.70;54.40
11239;DHT22;5677;48.488;13.436;2023-06-24T10:55:15;21.70;54.40
11239;DHT22;5677;48.488;13.436;2023-06-24T10:57:42;21.70;54.40
11239;DHT22;5677;48.488;13.436;2023-06-24T11:00:10;21.70;54.40
11239;DHT22;5677;48.488;13.436;2023-06-24T11:02:37;21.70;54.30
11239;DHT22;5677;48.488;13.436;2023-06-24T11:05:04;21.70;54.30
11239;DHT22;5677;48.488;13.436;2023-06-24T11:07:32;21.80;54.20
11239;DHT22;5677;48.488;13.436;2023-06-24T11:10:02;21.80;54.20
11239;DHT22;5677;48.488;13.436;2023-06-24T11:12:32;21.80;54.20
11239;DHT22;5677;48.488;13.436;2023-06-24T11:15:02;21.80;54.20
11239;DHT22;5677;48.488;13.436;2023-06-24T11:17:29;21.80;54.20
11239;DHT22;5677;48.488;13.436;2023-06-24T11:19:57;21.80;54.20
11239;DHT22;5677;48.488;13.436;2023-06-24T11:22:25;21.80;54.20
11239;DHT22;5677;48.488;13.436;2023-06-24T11:24:52;21.80;54.20
11239;DHT22;5677;48.488;13.436;2023-06-24T11:27:24;21.80;54.20
11239;DHT22;5677;48.488;13.436;2023-06-24T11:29:54;21.80;54.20
11239;DHT22;5677;48.488;13.436;2023-06-24T11:32:21;21.80;54.20
11239;DHT22;5677;48.488;13.436;2023-06-24T11:34:48;21.80;54.20
11239;DHT22;5677;48.488;13.436;2023-06-24T11:37:16;21.80;54.90
11239;DHT22;5677;48.488;13.436;2023-06-24T11:39:44;21.80;54.20
11239;DHT22;5677;48.488;13.436;2023-06-24T11:42:11;21.90;54.20
11239;DHT22;5677;48.488;13.436;2023-06-24T11:44:41;21.80;54.10
11239;DHT22;5677;48.488;13.436;2023-06-24T11:47:10;21.80;54.10
11239;DHT22;5677;48.488;13.436;2023-06-24T11:49:51;21.90;54.20
11239;DHT22;5677;48.488;13.436;2023-06-24T11:52:18;21.80;54.10
11239;DHT22;5677;48.488;13.436;2023-06-24T11:54:45;21.80;54.10
11239;DHT22;5677;48.488;13.436;2023-06-24T11:57:12;21.90;54.20
11239;DHT22;5677;48.488;13.436;2023-06-24T11:59:39;21.90;54.10
11239;DHT22;5677;48.488;13.436;2023-06-24T12:02:06;21.90;54.10
11239;DHT22;5677;48.488;13.436;2023-06-24T12:04:34;21.90;54.10
11239;DHT22;5677;48.488;13.436;2023-06-24T12:07:03;21.90;54.10
11239;DHT22;5677;48.488;13.436;2023-06-24T12:09:30;21.90;54.10
11239;DHT22;5677;48.488;13.436;2023-06-24T12:11:56;21.90;54.10
11239;DHT22;5677;48.488;13.436;2023-06-24T12:14:23;21.90;54.10
11239;DHT22;5677;48.488;13.436;2023-06-24T12:16:50;21.90;54.10
11239;DHT22;5677;48.488;13.436;2023-06-24T12:19:17;21.90;54.70
11239;DHT22;5677;48.488;13.436;2023-06-24T12:21:45;21.90;54.10
11239;DHT22;5677;48.488;13.436;2023-06-24T12:24:11;21.90;54.00
11239;DHT22;5677;48.488;13.436;2023-06-24T12:26:38;21.90;54.00
11239;DHT22;5677;48.488;13.436;2023-06-24T12:29:05;21.90;54.00
11239;DHT22;5677;48.488;13.436;2023-06-24T12:31:32;21.90;54.00
11239;DHT22;5677;48.488;13.436;2023-06-24T12:33:59;21.90;54.00
11239;DHT22;5677;48.488;13.436;2023-06-24T12:36:26;22.00;54.00
11239;DHT22;5677;48.488;13.436;2023-06-24T12:38:54;22.00;54.00
11239;DHT22;5677;48.488;13.436;2023-06-24T12:41:21;21.90;53.90
11239;DHT22;5677;48.488;13.436;2023-06-24T12:43:47;22.00;53.90
11239;DHT22;5677;48.488;13.436;2023-06-24T12:46:14;22.00;53.90
11239;DHT22;5677;48.488;13.436;2023-06-24T12:48:41;22.00;53.90
11239;DHT22;5677;48.488;13.436;2023-06-24T12:51:09;22.00;53.90
11239;DHT22;5677;48.488;13.436;2023-06-24T12:53:36;22.00;53.90
11239;DHT22;5677;48.488;13.436;2023-06-24T12:56:04;22.00;53.90
11239;DHT22;5677;48.488;13.436;2023-06-24T12:58:31;22.00;53.90
11239;DHT22;5677;48.488;13.436;2023-06-24T13:00:57;22.00;53.90
11239;DHT22;5677;48.488;13.436;2023-06-24T13:03:24;22.00;53.90
11239;DHT22;5677;48.488;13.436;2023-06-24T13:05:51;22.00;53.90
11239;DHT22;5677;48.488;13.436;2023-06-24T13:08:17;22.00;53.90
11239;DHT22;5677;48.488;13.436;2023-06-24T13:10:44;22.00;53.90
11239;DHT22;5677;48.488;13.436;2023-06-24T13:13:12;22.00;53.80
11239;DHT22;5677;48.488;13.436;2023-06-24T13:15:39;22.00;53.80
11239;DHT22;5677;48.488;13.436;2023-06-24T13:18:06;22.00;53.80
11239;DHT22;5677;48.488;13.436;2023-06-24T13:20:33;22.00;53.80
11239;DHT22;5677;48.488;13.436;2023-06-24T13:22:59;22.00;53.80
11239;DHT22;5677;48.488;13.436;2023-06-24T13:25:26;22.00;53.90
11239;DHT22;5677;48.488;13.436;2023-06-24T13:27:53;22.00;53.80
11239;DHT22;5677;48.488;13.436;2023-06-24T13:30:21;22.00;53.80
11239;DHT22;5677;48.488;13.436;2023-06-24T13:32:48;22.00;53.80
11239;DHT22;5677;48.488;13.436;2023-06-24T13:35:15;22.10;53.90
11239;DHT22;5677;48.488;13.436;2023-06-24T13:37:42;22.10;53.90
11239;DHT22;5677;48.488;13.436;2023-06-24T13:40:10;22.00;53.70
11239;DHT22;5677;48.488;13.436;2023-06-24T13:42:37;22.10;53.90
11239;DHT22;5677;48.488;13.436;2023-06-24T13:45:04;22.00;53.70
11239;DHT22;5677;48.488;13.436;2023-06-24T13:47:33;22.10;53.80
11239;DHT22;5677;48.488;13.436;2023-06-24T13:50:00;22.10;53.80
11239;DHT22;5677;48.488;13.436;2023-06-24T13:52:26;22.10;53.80
11239;DHT22;5677;48.488;13.436;2023-06-24T13:54:53;22.10;53.80
11239;DHT22;5677;48.488;13.436;2023-06-24T13:57:20;22.10;53.80
11239;DHT22;5677;48.488;13.436;2023-06-24T13:59:47;22.00;53.80
11239;DHT22;5677;48.488;13.436;2023-06-24T14:02:14;22.10;53.80
11239;DHT22;5677;48.488;13.436;2023-06-24T14:04:42;22.00;53.70
11239;DHT22;5677;48.488;13.436;2023-06-24T14:07:09;22.00;54.40
11239;DHT22;5677;48.488;13.436;2023-06-24T14:09:37;22.10;53.80
11239;DHT22;5677;48.488;13.436;2023-06-24T14:12:04;22.10;53.80
11239;DHT22;5677;48.488;13.436;2023-06-24T14:14:31;22.10;53.80
11239;DHT22;5677;48.488;13.436;2023-06-24T14:16:57;22.10;53.80
11239;DHT22;5677;48.488;13.436;2023-06-24T14:19:24;22.10;53.80
11239;DHT22;5677;48.488;13.436;2023-06-24T14:21:52;22.10;53.90
11239;DHT22;5677;48.488;13.436;2023-06-24T14:24:19;22.10;53.90
11239;DHT22;5677;48.488;13.436;2023-06-24T14:26:46;22.10;53.90
11239;DHT22;5677;48.488;13.436;2023-06-24T14:29:15;22.10;53.90
11239;DHT22;5677;48.488;13.436;2023-06-24T14:31:41;22.00;53.80
11239;DHT22;5677;48.488;13.436;2023-06-24T14:34:08;22.10;53.80
11239;DHT22;5677;48.488;13.436;2023-06-24T14:36:35;22.10;53.80
11239;DHT22;5677;48.488;13.436;2023-06-24T14:39:04;22.10;53.90
11239;DHT22;5677;48.488;13.436;2023-06-24T14:41:30;22.10;53.80
11239;DHT22;5677;48.488;13.436;2023-06-24T14:43:57;22.10;53.80
11239;DHT22;5677;48.488;13.436;2023-06-24T14:46:24;22.10;53.80
11239;DHT22;5677;48.488;13.436;2023-06-24T14:48:50;22.00;53.80
11239;DHT22;5677;48.488;13.436;2023-06-24T14:51:17;22.10;53.80
11239;DHT22;5677;48.488;13.436;2023-06-24T14:53:44;22.00;53.70
11239;DHT22;5677;48.488;13.436;2023-06-24T14:56:12;22.10;53.80
11239;DHT22;5677;48.488;13.436;2023-06-24T14:58:39;22.10;53.80
11239;DHT22;5677;48.488;13.436;2023-06-24T15:01:06;22.10;53.80
11239;DHT22;5677;48.488;13.436;2023-06-24T15:03:32;22.10;53.80
11239;DHT22;5677;48.488;13.436;2023-06-24T15:05:59;22.10;53.80
11239;DHT22;5677;48.488;13.436;2023-06-24T15:08:26;22.10;53.80
11239;DHT22;5677;48.488;13.436;2023-06-24T15:10:53;22.10;53.80
11239;DHT22;5677;48.488;13.436;2023-06-24T15:13:21;22.20;53.80
11239;DHT22;5677;48.488;13.436;2023-06-24T15:15:47;22.10;53.80
11239;DHT22;5677;48.488;13.436;2023-06-24T15:18:15;22.10;53.80
11239;DHT22;5677;48.488;13.436;2023-06-24T15:20:41;22.20;53.80
11239;DHT22;5677;48.488;13.436;2023-06-24T15:23:08;22.10;53.70
11239;DHT22;5677;48.488;13.436;2023-06-24T15:25:35;22.10;53.70
11239;DHT22;5677;48.488;13.436;2023-06-24T15:28:02;22.10;53.70
11239;DHT22;5677;48.488;13.436;2023-06-24T15:30:30;22.10;53.80
11239;DHT22;5677;48.488;13.436;2023-06-24T15:32:57;22.10;53.70